sensor_id;sensor_type;location;lat;lon;timestamp;P1;durP1;ratioP1;P2;durP2;ratioP2
11486;SDS011;10510;47.942;9.442;2023-06-14T00:00:52;7.50;;;4.72;;
11486;SDS011;10510;47.942;9.442;2023-06-14T00:02:52;6.50;;;4.25;;
11486;SDS011;10510;47.942;9.442;2023-06-14T00:04:55;9.65;;;3.75;;
11486;SDS011;10510;47.942;9.442;2023-06-14T00:06:56;5.95;;;3.78;;
11486;SDS011;10510;47.942;9.442;2023-06-14T00:08:57;9.85;;;3.85;;
11486;SDS011;10510;47.942;9.442;2023-06-14T00:10:57;7.60;;;3.70;;
11486;SDS011;10510;47.942;9.442;2023-06-14T00:12:57;6.68;;;3.38;;
11486;SDS011;10510;47.942;9.442;2023-06-14T00:14:59;7.22;;;3.90;;
11486;SDS011;10510;47.942;9.442;2023-06-14T00:17:01;11.50;;;4.00;;
11486;SDS011;10510;47.942;9.442;2023-06-14T00:19:02;6.32;;;4.13;;
11486;SDS011;10510;47.942;9.442;2023-06-14T00:21:05;8.85;;;5.05;;
11486;SDS011;10510;47.942;9.442;2023-06-14T00:23:05;6.85;;;4.20;;
11486;SDS011;10510;47.942;9.442;2023-06-14T00:25:06;8.40;;;4.45;;
11486;SDS011;10510;47.942;9.442;2023-06-14T00:27:07;8.40;;;4.35;;
11486;SDS011;10510;47.942;9.442;2023-06-14T00:29:07;7.22;;;4.28;;
11486;SDS011;10510;47.942;9.442;2023-06-14T00:31:07;6.45;;;3.90;;
11486;SDS011;10510;47.942;9.442;2023-06-14T00:33:07;6.63;;;3.70;;
11486;SDS011;10510;47.942;9.442;2023-06-14T00:35:08;8.40;;;4.55;;
11486;SDS011;10510;47.942;9.442;2023-06-14T00:37:08;6.82;;;4.38;;
11486;SDS011;10510;47.942;9.442;2023-06-14T00:39:09;6.10;;;4.22;;
11486;SDS011;10510;47.942;9.442;2023-06-14T00:41:09;12.43;;;4.28;;
11486;SDS011;10510;47.942;9.442;2023-06-14T00:43:10;13.38;;;4.85;;
11486;SDS011;10510;47.942;9.442;2023-06-14T00:45:10;7.35;;;4.22;;
11486;SDS011;10510;47.942;9.442;2023-06-14T00:47:10;7.80;;;4.60;;
11486;SDS011;10510;47.942;9.442;2023-06-14T00:49:10;8.60;;;4.55;;
11486;SDS011;10510;47.942;9.442;2023-06-14T00:51:15;7.45;;;4.13;;
11486;SDS011;10510;47.942;9.442;2023-06-14T00:53:16;7.55;;;4.20;;
11486;SDS011;10510;47.942;9.442;2023-06-14T00:55:20;5.97;;;4.00;;
11486;SDS011;10510;47.942;9.442;2023-06-14T00:57:20;6.97;;;3.65;;
11486;SDS011;10510;47.942;9.442;2023-06-14T00:59:21;6.45;;;3.78;;
11486;SDS011;10510;47.942;9.442;2023-06-14T01:01:21;6.15;;;3.58;;
11486;SDS011;10510;47.942;9.442;2023-06-14T01:03:22;7.82;;;4.03;;
11486;SDS011;10510;47.942;9.442;2023-06-14T01:05:22;6.95;;;3.85;;
11486;SDS011;10510;47.942;9.442;2023-06-14T01:12:14;8.80;;;3.95;;
11486;SDS011;10510;47.942;9.442;2023-06-14T01:14:19;6.47;;;4.00;;
11486;SDS011;10510;47.942;9.442;2023-06-14T01:16:21;7.22;;;4.18;;
11486;SDS011;10510;47.942;9.442;2023-06-14T01:18:22;7.03;;;3.78;;
11486;SDS011;10510;47.942;9.442;2023-06-14T01:20:26;6.72;;;3.50;;
11486;SDS011;10510;47.942;9.442;2023-06-14T01:22:29;6.97;;;4.03;;
11486;SDS011;10510;47.942;9.442;2023-06-14T01:24:30;6.18;;;3.58;;
11486;SDS011;10510;47.942;9.442;2023-06-14T01:26:32;6.35;;;4.50;;
11486;SDS011;10510;47.942;9.442;2023-06-14T01:28:32;9.45;;;4.13;;
11486;SDS011;10510;47.942;9.442;2023-06-14T01:30:36;7.60;;;3.67;;
11486;SDS011;10510;47.942;9.442;2023-06-14T01:32:37;8.38;;;4.18;;
11486;SDS011;10510;47.942;9.442;2023-06-14T01:34:38;8.07;;;3.70;;
11486;SDS011;10510;47.942;9.442;2023-06-14T01:36:39;16.48;;;4.20;;
11486;SDS011;10510;47.942;9.442;2023-06-14T01:38:42;9.55;;;3.97;;
11486;SDS011;10510;47.942;9.442;2023-06-14T01:40:44;5.57;;;3.92;;
11486;SDS011;10510;47.942;9.442;2023-06-14T01:42:46;8.20;;;4.22;;
11486;SDS011;10510;47.942;9.442;2023-06-14T01:44:47;9.85;;;3.83;;
11486;SDS011;10510;47.942;9.442;2023-06-14T01:46:49;4.93;;;3.60;;
11486;SDS011;10510;47.942;9.442;2023-06-14T01:48:49;6.68;;;3.85;;
11486;SDS011;10510;47.942;9.442;2023-06-14T01:50:50;7.00;;;4.05;;
11486;SDS011;10510;47.942;9.442;2023-06-14T01:52:51;6.80;;;3.83;;
11486;SDS011;10510;47.942;9.442;2023-06-14T01:54:52;8.10;;;4.80;;
11486;SDS011;10510;47.942;9.442;2023-06-14T01:56:52;8.60;;;4.80;;
11486;SDS011;10510;47.942;9.442;2023-06-14T01:58:53;6.40;;;4.05;;
11486;SDS011;10510;47.942;9.442;2023-06-14T02:00:53;6.10;;;3.80;;
11486;SDS011;10510;47.942;9.442;2023-06-14T02:02:55;7.68;;;3.90;;
11486;SDS011;10510;47.942;9.442;2023-06-14T02:04:55;10.10;;;3.78;;
11486;SDS011;10510;47.942;9.442;2023-06-14T02:06:57;5.22;;;3.85;;
11486;SDS011;10510;47.942;9.442;2023-06-14T02:08:57;9.15;;;4.40;;
11486;SDS011;10510;47.942;9.442;2023-06-14T02:10:58;6.65;;;4.25;;
11486;SDS011;10510;47.942;9.442;2023-06-14T02:12:58;6.45;;;4.22;;
11486;SDS011;10510;47.942;9.442;2023-06-14T02:14:58;5.53;;;3.58;;
11486;SDS011;10510;47.942;9.442;2023-06-14T02:16:59;7.40;;;4.03;;
11486;SDS011;10510;47.942;9.442;2023-06-14T02:19:00;8.32;;;4.28;;
11486;SDS011;10510;47.942;9.442;2023-06-14T02:21:01;9.93;;;3.60;;
11486;SDS011;10510;47.942;9.442;2023-06-14T02:23:01;6.78;;;3.78;;
11486;SDS011;10510;47.942;9.442;2023-06-14T02:25:01;6.88;;;4.35;;
11486;SDS011;10510;47.942;9.442;2023-06-14T02:27:02;9.50;;;4.07;;
11486;SDS011;10510;47.942;9.442;2023-06-14T02:29:03;6.38;;;3.88;;
11486;SDS011;10510;47.942;9.442;2023-06-14T02:31:05;10.90;;;5.05;;
11486;SDS011;10510;47.942;9.442;2023-06-14T02:33:05;5.65;;;3.70;;
11486;SDS011;10510;47.942;9.442;2023-06-14T02:35:06;5.88;;;3.88;;
11486;SDS011;10510;47.942;9.442;2023-06-14T02:37:07;6.25;;;4.15;;
11486;SDS011;10510;47.942;9.442;2023-06-14T02:39:08;9.50;;;4.35;;
11486;SDS011;10510;47.942;9.442;2023-06-14T02:41:10;6.75;;;4.30;;
11486;SDS011;10510;47.942;9.442;2023-06-14T02:43:10;7.95;;;4.40;;
11486;SDS011;10510;47.942;9.442;2023-06-14T02:45:10;6.60;;;4.15;;
11486;SDS011;10510;47.942;9.442;2023-06-14T02:47:11;8.18;;;3.97;;
11486;SDS011;10510;47.942;9.442;2023-06-14T02:49:11;7.10;;;4.30;;
11486;SDS011;10510;47.942;9.442;2023-06-14T02:51:11;11.95;;;4.97;;
11486;SDS011;10510;47.942;9.442;2023-06-14T02:53:12;6.10;;;4.07;;
11486;SDS011;10510;47.942;9.442;2023-06-14T02:55:12;6.82;;;4.30;;
11486;SDS011;10510;47.942;9.442;2023-06-14T02:57:13;8.27;;;4.35;;
11486;SDS011;10510;47.942;9.442;2023-06-14T02:59:13;7.22;;;3.65;;
11486;SDS011;10510;47.942;9.442;2023-06-14T03:01:14;9.20;;;3.92;;
11486;SDS011;10510;47.942;9.442;2023-06-14T03:03:14;7.63;;;4.55;;
11486;SDS011;10510;47.942;9.442;2023-06-14T03:05:16;9.10;;;5.13;;
11486;SDS011;10510;47.942;9.442;2023-06-14T03:07:16;10.88;;;4.05;;
11486;SDS011;10510;47.942;9.442;2023-06-14T03:09:19;6.15;;;4.15;;
11486;SDS011;10510;47.942;9.442;2023-06-14T03:11:20;5.93;;;3.58;;
11486;SDS011;10510;47.942;9.442;2023-06-14T03:13:20;6.43;;;4.00;;
11486;SDS011;10510;47.942;9.442;2023-06-14T03:15:23;10.10;;;4.35;;
11486;SDS011;10510;47.942;9.442;2023-06-14T03:17:24;8.18;;;4.38;;
11486;SDS011;10510;47.942;9.442;2023-06-14T03:19:29;7.57;;;4.47;;
11486;SDS011;10510;47.942;9.442;2023-06-14T03:21:30;12.07;;;4.53;;
11486;SDS011;10510;47.942;9.442;2023-06-14T03:23:30;9.18;;;5.00;;
11486;SDS011;10510;47.942;9.442;2023-06-14T03:25:31;7.85;;;4.57;;
11486;SDS011;10510;47.942;9.442;2023-06-14T03:27:33;10.63;;;5.20;;
11486;SDS011;10510;47.942;9.442;2023-06-14T03:29:33;14.63;;;5.00;;
11486;SDS011;10510;47.942;9.442;2023-06-14T03:31:34;8.30;;;5.00;;
11486;SDS011;10510;47.942;9.442;2023-06-14T03:33:34;10.60;;;4.40;;
11486;SDS011;10510;47.942;9.442;2023-06-14T03:35:35;11.65;;;4.55;;
11486;SDS011;10510;47.942;9.442;2023-06-14T03:37:35;9.20;;;5.07;;
11486;SDS011;10510;47.942;9.442;2023-06-14T03:39:36;9.07;;;5.60;;
11486;SDS011;10510;47.942;9.442;2023-06-14T03:41:36;12.05;;;4.82;;
11486;SDS011;10510;47.942;9.442;2023-06-14T03:43:36;8.27;;;4.90;;
11486;SDS011;10510;47.942;9.442;2023-06-14T03:45:37;8.55;;;5.63;;
11486;SDS011;10510;47.942;9.442;2023-06-14T03:47:37;9.45;;;5.32;;
11486;SDS011;10510;47.942;9.442;2023-06-14T03:49:37;9.07;;;5.03;;
11486;SDS011;10510;47.942;9.442;2023-06-14T03:51:38;9.40;;;5.43;;
11486;SDS011;10510;47.942;9.442;2023-06-14T03:53:39;9.25;;;5.22;;
11486;SDS011;10510;47.942;9.442;2023-06-14T03:55:40;8.70;;;4.90;;
11486;SDS011;10510;47.942;9.442;2023-06-14T03:57:42;10.80;;;5.38;;
11486;SDS011;10510;47.942;9.442;2023-06-14T03:59:42;8.35;;;4.47;;
11486;SDS011;10510;47.942;9.442;2023-06-14T04:01:43;10.07;;;5.28;;
11486;SDS011;10510;47.942;9.442;2023-06-14T04:03:44;9.00;;;5.80;;
11486;SDS011;10510;47.942;9.442;2023-06-14T04:05:45;9.90;;;4.93;;
11486;SDS011;10510;47.942;9.442;2023-06-14T04:07:49;9.20;;;5.47;;
11486;SDS011;10510;47.942;9.442;2023-06-14T04:09:50;10.05;;;5.40;;
11486;SDS011;10510;47.942;9.442;2023-06-14T04:11:51;6.65;;;4.30;;
11486;SDS011;10510;47.942;9.442;2023-06-14T04:13:52;11.82;;;5.85;;
11486;SDS011;10510;47.942;9.442;2023-06-14T04:15:53;10.65;;;5.43;;
11486;SDS011;10510;47.942;9.442;2023-06-14T04:17:54;7.43;;;4.75;;
11486;SDS011;10510;47.942;9.442;2023-06-14T04:19:57;11.40;;;5.70;;
11486;SDS011;10510;47.942;9.442;2023-06-14T04:21:58;12.63;;;5.15;;
11486;SDS011;10510;47.942;9.442;2023-06-14T04:24:01;9.68;;;5.70;;
11486;SDS011;10510;47.942;9.442;2023-06-14T04:26:02;12.57;;;4.85;;
11486;SDS011;10510;47.942;9.442;2023-06-14T04:28:02;9.40;;;5.45;;
11486;SDS011;10510;47.942;9.442;2023-06-14T04:30:03;7.60;;;4.80;;
11486;SDS011;10510;47.942;9.442;2023-06-14T04:32:04;11.80;;;5.45;;
11486;SDS011;10510;47.942;9.442;2023-06-14T04:34:06;8.15;;;4.85;;
11486;SDS011;10510;47.942;9.442;2023-06-14T04:36:06;9.15;;;4.90;;
11486;SDS011;10510;47.942;9.442;2023-06-14T04:38:07;11.40;;;4.68;;
11486;SDS011;10510;47.942;9.442;2023-06-14T04:40:11;10.60;;;4.63;;
11486;SDS011;10510;47.942;9.442;2023-06-14T04:42:11;10.65;;;5.30;;
11486;SDS011;10510;47.942;9.442;2023-06-14T04:44:11;8.00;;;5.00;;
11486;SDS011;10510;47.942;9.442;2023-06-14T04:46:12;8.95;;;4.65;;
11486;SDS011;10510;47.942;9.442;2023-06-14T04:48:14;13.55;;;3.90;;
11486;SDS011;10510;47.942;9.442;2023-06-14T04:50:15;7.00;;;4.50;;
11486;SDS011;10510;47.942;9.442;2023-06-14T04:52:18;13.30;;;4.78;;
11486;SDS011;10510;47.942;9.442;2023-06-14T04:54:21;10.85;;;5.38;;
11486;SDS011;10510;47.942;9.442;2023-06-14T04:56:21;6.70;;;4.43;;
11486;SDS011;10510;47.942;9.442;2023-06-14T04:58:21;8.77;;;4.65;;
11486;SDS011;10510;47.942;9.442;2023-06-14T05:00:21;6.78;;;4.13;;
11486;SDS011;10510;47.942;9.442;2023-06-14T05:02:23;7.88;;;4.30;;
11486;SDS011;10510;47.942;9.442;2023-06-14T05:04:25;10.40;;;3.90;;
11486;SDS011;10510;47.942;9.442;2023-06-14T05:06:26;8.77;;;4.75;;
11486;SDS011;10510;47.942;9.442;2023-06-14T05:08:27;7.68;;;4.43;;
11486;SDS011;10510;47.942;9.442;2023-06-14T05:10:27;8.75;;;4.25;;
11486;SDS011;10510;47.942;9.442;2023-06-14T05:12:27;6.50;;;4.15;;
11486;SDS011;10510;47.942;9.442;2023-06-14T05:14:29;6.78;;;4.55;;
11486;SDS011;10510;47.942;9.442;2023-06-14T05:16:29;10.73;;;4.78;;
11486;SDS011;10510;47.942;9.442;2023-06-14T05:18:29;7.93;;;4.35;;
11486;SDS011;10510;47.942;9.442;2023-06-14T05:20:30;6.93;;;3.95;;
11486;SDS011;10510;47.942;9.442;2023-06-14T05:22:30;6.57;;;3.60;;
11486;SDS011;10510;47.942;9.442;2023-06-14T05:24:31;6.93;;;4.13;;
11486;SDS011;10510;47.942;9.442;2023-06-14T05:26:32;8.48;;;5.00;;
11486;SDS011;10510;47.942;9.442;2023-06-14T05:28:33;9.48;;;4.13;;
11486;SDS011;10510;47.942;9.442;2023-06-14T05:30:33;10.57;;;4.43;;
11486;SDS011;10510;47.942;9.442;2023-06-14T05:32:34;5.22;;;3.42;;
11486;SDS011;10510;47.942;9.442;2023-06-14T05:34:34;10.27;;;3.80;;
11486;SDS011;10510;47.942;9.442;2023-06-14T05:36:34;7.93;;;4.00;;
11486;SDS011;10510;47.942;9.442;2023-06-14T05:38:36;7.03;;;3.50;;
11486;SDS011;10510;47.942;9.442;2023-06-14T05:40:37;8.98;;;3.17;;
11486;SDS011;10510;47.942;9.442;2023-06-14T05:42:37;7.38;;;4.03;;
11486;SDS011;10510;47.942;9.442;2023-06-14T05:44:37;10.20;;;4.05;;
11486;SDS011;10510;47.942;9.442;2023-06-14T05:46:37;11.68;;;4.28;;
11486;SDS011;10510;47.942;9.442;2023-06-14T05:48:39;8.68;;;3.88;;
11486;SDS011;10510;47.942;9.442;2023-06-14T05:50:40;6.75;;;4.25;;
11486;SDS011;10510;47.942;9.442;2023-06-14T05:52:40;6.40;;;3.42;;
11486;SDS011;10510;47.942;9.442;2023-06-14T05:54:40;9.85;;;3.80;;
11486;SDS011;10510;47.942;9.442;2023-06-14T05:56:41;5.53;;;3.40;;
11486;SDS011;10510;47.942;9.442;2023-06-14T05:58:41;14.52;;;3.60;;
11486;SDS011;10510;47.942;9.442;2023-06-14T06:00:42;6.13;;;3.70;;
11486;SDS011;10510;47.942;9.442;2023-06-14T06:02:42;7.28;;;3.20;;
11486;SDS011;10510;47.942;9.442;2023-06-14T06:04:43;4.85;;;2.92;;
11486;SDS011;10510;47.942;9.442;2023-06-14T06:06:43;5.57;;;3.20;;
11486;SDS011;10510;47.942;9.442;2023-06-14T06:08:44;5.07;;;3.20;;
11486;SDS011;10510;47.942;9.442;2023-06-14T06:10:44;9.20;;;4.10;;
11486;SDS011;10510;47.942;9.442;2023-06-14T06:12:44;9.00;;;3.15;;
11486;SDS011;10510;47.942;9.442;2023-06-14T06:14:47;4.20;;;3.25;;
11486;SDS011;10510;47.942;9.442;2023-06-14T06:16:47;6.45;;;3.40;;
11486;SDS011;10510;47.942;9.442;2023-06-14T06:18:47;5.45;;;2.97;;
11486;SDS011;10510;47.942;9.442;2023-06-14T06:20:48;6.35;;;3.28;;
11486;SDS011;10510;47.942;9.442;2023-06-14T06:22:48;9.13;;;3.22;;
11486;SDS011;10510;47.942;9.442;2023-06-14T06:24:48;11.40;;;3.10;;
11486;SDS011;10510;47.942;9.442;2023-06-14T06:26:49;5.65;;;3.30;;
11486;SDS011;10510;47.942;9.442;2023-06-14T06:28:49;8.20;;;3.30;;
11486;SDS011;10510;47.942;9.442;2023-06-14T06:30:49;7.50;;;3.33;;
11486;SDS011;10510;47.942;9.442;2023-06-14T06:32:50;12.43;;;3.83;;
11486;SDS011;10510;47.942;9.442;2023-06-14T06:34:51;6.03;;;2.70;;
11486;SDS011;10510;47.942;9.442;2023-06-14T06:36:51;7.82;;;2.95;;
11486;SDS011;10510;47.942;9.442;2023-06-14T06:38:52;15.57;;;3.20;;
11486;SDS011;10510;47.942;9.442;2023-06-14T06:40:52;4.95;;;2.53;;
11486;SDS011;10510;47.942;9.442;2023-06-14T06:42:54;4.20;;;2.65;;
11486;SDS011;10510;47.942;9.442;2023-06-14T06:44:54;13.77;;;3.10;;
11486;SDS011;10510;47.942;9.442;2023-06-14T06:46:55;5.65;;;3.03;;
11486;SDS011;10510;47.942;9.442;2023-06-14T06:48:55;10.15;;;3.38;;
11486;SDS011;10510;47.942;9.442;2023-06-14T06:50:55;12.95;;;3.03;;
11486;SDS011;10510;47.942;9.442;2023-06-14T06:52:56;5.13;;;2.75;;
11486;SDS011;10510;47.942;9.442;2023-06-14T06:54:57;10.35;;;3.20;;
11486;SDS011;10510;47.942;9.442;2023-06-14T06:56:57;5.63;;;2.97;;
11486;SDS011;10510;47.942;9.442;2023-06-14T06:58:58;5.20;;;2.80;;
11486;SDS011;10510;47.942;9.442;2023-06-14T07:00:58;10.35;;;4.07;;
11486;SDS011;10510;47.942;9.442;2023-06-14T07:02:58;18.13;;;3.38;;
11486;SDS011;10510;47.942;9.442;2023-06-14T07:04:59;5.97;;;3.60;;
11486;SDS011;10510;47.942;9.442;2023-06-14T07:06:59;11.10;;;3.88;;
11486;SDS011;10510;47.942;9.442;2023-06-14T07:09:00;7.90;;;3.10;;
11486;SDS011;10510;47.942;9.442;2023-06-14T07:11:01;8.60;;;3.15;;
11486;SDS011;10510;47.942;9.442;2023-06-14T07:13:02;5.00;;;3.15;;
11486;SDS011;10510;47.942;9.442;2023-06-14T07:15:03;9.40;;;3.05;;
11486;SDS011;10510;47.942;9.442;2023-06-14T07:17:04;6.45;;;2.70;;
11486;SDS011;10510;47.942;9.442;2023-06-14T07:19:05;3.22;;;2.03;;
11486;SDS011;10510;47.942;9.442;2023-06-14T07:21:05;5.57;;;2.90;;
11486;SDS011;10510;47.942;9.442;2023-06-14T07:23:05;18.83;;;3.22;;
11486;SDS011;10510;47.942;9.442;2023-06-14T07:25:06;5.43;;;2.10;;
11486;SDS011;10510;47.942;9.442;2023-06-14T07:27:08;7.82;;;2.97;;
11486;SDS011;10510;47.942;9.442;2023-06-14T07:29:08;4.55;;;2.72;;
11486;SDS011;10510;47.942;9.442;2023-06-14T07:31:09;4.78;;;2.55;;
11486;SDS011;10510;47.942;9.442;2023-06-14T07:33:09;5.28;;;2.40;;
11486;SDS011;10510;47.942;9.442;2023-06-14T07:35:10;7.28;;;2.97;;
11486;SDS011;10510;47.942;9.442;2023-06-14T07:37:10;5.55;;;2.55;;
11486;SDS011;10510;47.942;9.442;2023-06-14T07:39:10;4.03;;;2.58;;
11486;SDS011;10510;47.942;9.442;2023-06-14T07:41:11;4.13;;;2.55;;
11486;SDS011;10510;47.942;9.442;2023-06-14T07:43:11;8.05;;;2.65;;
11486;SDS011;10510;47.942;9.442;2023-06-14T07:45:12;5.78;;;2.40;;
11486;SDS011;10510;47.942;9.442;2023-06-14T07:47:13;6.30;;;2.60;;
11486;SDS011;10510;47.942;9.442;2023-06-14T07:49:14;4.18;;;2.42;;
11486;SDS011;10510;47.942;9.442;2023-06-14T07:51:14;5.15;;;2.90;;
11486;SDS011;10510;47.942;9.442;2023-06-14T07:53:14;6.50;;;2.80;;
11486;SDS011;10510;47.942;9.442;2023-06-14T07:55:15;3.78;;;2.13;;
11486;SDS011;10510;47.942;9.442;2023-06-14T07:57:15;4.32;;;2.70;;
11486;SDS011;10510;47.942;9.442;2023-06-14T07:59:15;5.93;;;2.85;;
11486;SDS011;10510;47.942;9.442;2023-06-14T08:01:16;5.15;;;2.85;;
11486;SDS011;10510;47.942;9.442;2023-06-14T08:03:16;4.45;;;2.67;;
11486;SDS011;10510;47.942;9.442;2023-06-14T08:05:18;8.65;;;2.35;;
11486;SDS011;10510;47.942;9.442;2023-06-14T08:07:18;4.47;;;2.70;;
11486;SDS011;10510;47.942;9.442;2023-06-14T08:09:19;4.13;;;2.47;;
11486;SDS011;10510;47.942;9.442;2023-06-14T08:11:19;8.73;;;3.00;;
11486;SDS011;10510;47.942;9.442;2023-06-14T08:13:19;3.08;;;2.15;;
11486;SDS011;10510;47.942;9.442;2023-06-14T08:15:19;11.57;;;2.70;;
11486;SDS011;10510;47.942;9.442;2023-06-14T08:17:20;4.85;;;2.50;;
11486;SDS011;10510;47.942;9.442;2023-06-14T08:19:20;4.15;;;2.72;;
11486;SDS011;10510;47.942;9.442;2023-06-14T08:21:21;6.85;;;2.55;;
11486;SDS011;10510;47.942;9.442;2023-06-14T08:23:21;7.88;;;2.83;;
11486;SDS011;10510;47.942;9.442;2023-06-14T08:25:22;7.80;;;3.05;;
11486;SDS011;10510;47.942;9.442;2023-06-14T08:27:22;11.40;;;2.80;;
11486;SDS011;10510;47.942;9.442;2023-06-14T08:29:23;7.60;;;3.00;;
11486;SDS011;10510;47.942;9.442;2023-06-14T08:31:23;5.97;;;2.35;;
11486;SDS011;10510;47.942;9.442;2023-06-14T08:33:25;3.70;;;2.50;;
11486;SDS011;10510;47.942;9.442;2023-06-14T08:35:25;3.45;;;2.30;;
11486;SDS011;10510;47.942;9.442;2023-06-14T08:37:25;6.30;;;2.47;;
11486;SDS011;10510;47.942;9.442;2023-06-14T08:39:26;9.10;;;2.50;;
11486;SDS011;10510;47.942;9.442;2023-06-14T08:41:27;6.45;;;2.55;;
11486;SDS011;10510;47.942;9.442;2023-06-14T08:43:29;7.25;;;2.55;;
11486;SDS011;10510;47.942;9.442;2023-06-14T08:45:29;2.88;;;1.95;;
11486;SDS011;10510;47.942;9.442;2023-06-14T08:47:30;6.45;;;3.00;;
11486;SDS011;10510;47.942;9.442;2023-06-14T08:49:36;4.05;;;2.10;;
11486;SDS011;10510;47.942;9.442;2023-06-14T08:51:38;4.03;;;2.70;;
11486;SDS011;10510;47.942;9.442;2023-06-14T08:53:40;4.95;;;2.13;;
11486;SDS011;10510;47.942;9.442;2023-06-14T08:55:42;3.67;;;2.50;;
11486;SDS011;10510;47.942;9.442;2023-06-14T08:57:43;7.13;;;2.00;;
11486;SDS011;10510;47.942;9.442;2023-06-14T08:59:47;3.05;;;1.85;;
11486;SDS011;10510;47.942;9.442;2023-06-14T09:01:49;6.40;;;2.30;;
11486;SDS011;10510;47.942;9.442;2023-06-14T09:03:49;3.72;;;2.35;;
11486;SDS011;10510;47.942;9.442;2023-06-14T09:05:50;3.08;;;2.08;;
11486;SDS011;10510;47.942;9.442;2023-06-14T09:07:52;5.05;;;2.90;;
11486;SDS011;10510;47.942;9.442;2023-06-14T09:10:07;3.08;;;2.20;;
11486;SDS011;10510;47.942;9.442;2023-06-14T09:12:16;6.00;;;1.95;;
11486;SDS011;10510;47.942;9.442;2023-06-14T09:14:20;4.93;;;2.55;;
11486;SDS011;10510;47.942;9.442;2023-06-14T09:16:21;4.30;;;2.40;;
11486;SDS011;10510;47.942;9.442;2023-06-14T09:18:21;4.40;;;2.30;;
11486;SDS011;10510;47.942;9.442;2023-06-14T09:20:33;4.63;;;2.17;;
11486;SDS011;10510;47.942;9.442;2023-06-14T09:22:33;5.20;;;2.22;;
11486;SDS011;10510;47.942;9.442;2023-06-14T09:24:34;5.85;;;2.40;;
11486;SDS011;10510;47.942;9.442;2023-06-14T09:26:36;8.73;;;2.50;;
11486;SDS011;10510;47.942;9.442;2023-06-14T09:28:56;4.25;;;2.50;;
11486;SDS011;10510;47.942;9.442;2023-06-14T09:30:56;4.40;;;2.33;;
11486;SDS011;10510;47.942;9.442;2023-06-14T09:32:57;3.28;;;2.30;;
11486;SDS011;10510;47.942;9.442;2023-06-14T09:34:57;6.70;;;2.22;;
11486;SDS011;10510;47.942;9.442;2023-06-14T09:36:58;3.35;;;2.00;;
11486;SDS011;10510;47.942;9.442;2023-06-14T09:38:59;4.40;;;2.35;;
11486;SDS011;10510;47.942;9.442;2023-06-14T09:41:04;4.97;;;2.60;;
11486;SDS011;10510;47.942;9.442;2023-06-14T09:43:05;4.80;;;2.50;;
11486;SDS011;10510;47.942;9.442;2023-06-14T09:45:09;3.50;;;2.22;;
11486;SDS011;10510;47.942;9.442;2023-06-14T09:47:11;5.93;;;2.10;;
11486;SDS011;10510;47.942;9.442;2023-06-14T09:49:12;5.95;;;2.75;;
11486;SDS011;10510;47.942;9.442;2023-06-14T09:51:13;4.72;;;2.30;;
11486;SDS011;10510;47.942;9.442;2023-06-14T09:53:15;4.85;;;2.58;;
11486;SDS011;10510;47.942;9.442;2023-06-14T09:55:20;6.13;;;2.70;;
11486;SDS011;10510;47.942;9.442;2023-06-14T09:57:22;4.63;;;2.75;;
11486;SDS011;10510;47.942;9.442;2023-06-14T09:59:25;6.22;;;2.60;;
11486;SDS011;10510;47.942;9.442;2023-06-14T10:01:30;5.35;;;2.67;;
11486;SDS011;10510;47.942;9.442;2023-06-14T10:03:31;3.85;;;2.67;;
11486;SDS011;10510;47.942;9.442;2023-06-14T10:05:32;8.43;;;2.45;;
11486;SDS011;10510;47.942;9.442;2023-06-14T10:07:38;6.05;;;2.80;;
11486;SDS011;10510;47.942;9.442;2023-06-14T10:09:41;8.73;;;2.60;;
11486;SDS011;10510;47.942;9.442;2023-06-14T10:11:45;3.72;;;2.55;;
11486;SDS011;10510;47.942;9.442;2023-06-14T10:13:46;3.13;;;2.25;;
11486;SDS011;10510;47.942;9.442;2023-06-14T10:18:24;11.40;;;3.13;;
11486;SDS011;10510;47.942;9.442;2023-06-14T10:20:42;10.25;;;3.10;;
11486;SDS011;10510;47.942;9.442;2023-06-14T10:22:51;6.00;;;3.00;;
11486;SDS011;10510;47.942;9.442;2023-06-14T10:24:59;8.65;;;3.83;;
11486;SDS011;10510;47.942;9.442;2023-06-14T10:26:59;12.82;;;4.50;;
11486;SDS011;10510;47.942;9.442;2023-06-14T10:29:01;5.03;;;2.90;;
11486;SDS011;10510;47.942;9.442;2023-06-14T10:33:12;9.43;;;2.70;;
11486;SDS011;10510;47.942;9.442;2023-06-14T10:35:15;7.05;;;3.33;;
11486;SDS011;10510;47.942;9.442;2023-06-14T10:37:16;4.18;;;2.45;;
11486;SDS011;10510;47.942;9.442;2023-06-14T10:39:17;3.50;;;3.15;;
11486;SDS011;10510;47.942;9.442;2023-06-14T10:41:18;4.93;;;3.25;;
11486;SDS011;10510;47.942;9.442;2023-06-14T10:43:22;7.68;;;2.70;;
11486;SDS011;10510;47.942;9.442;2023-06-14T10:45:23;9.05;;;2.83;;
11486;SDS011;10510;47.942;9.442;2023-06-14T10:47:30;4.22;;;2.55;;
11486;SDS011;10510;47.942;9.442;2023-06-14T10:49:39;5.30;;;2.60;;
11486;SDS011;10510;47.942;9.442;2023-06-14T10:51:44;4.07;;;2.80;;
11486;SDS011;10510;47.942;9.442;2023-06-14T10:53:49;5.45;;;2.45;;
11486;SDS011;10510;47.942;9.442;2023-06-14T10:55:51;3.97;;;2.55;;
11486;SDS011;10510;47.942;9.442;2023-06-14T10:57:52;5.38;;;2.65;;
11486;SDS011;10510;47.942;9.442;2023-06-14T10:59:58;4.45;;;3.03;;
11486;SDS011;10510;47.942;9.442;2023-06-14T11:02:17;5.50;;;3.05;;
11486;SDS011;10510;47.942;9.442;2023-06-14T11:04:22;6.15;;;2.63;;
11486;SDS011;10510;47.942;9.442;2023-06-14T11:06:40;4.28;;;2.58;;
11486;SDS011;10510;47.942;9.442;2023-06-14T11:11:38;3.25;;;2.20;;
11486;SDS011;10510;47.942;9.442;2023-06-14T11:13:43;5.00;;;2.70;;
11486;SDS011;10510;47.942;9.442;2023-06-14T11:15:45;7.43;;;2.92;;
11486;SDS011;10510;47.942;9.442;2023-06-14T11:17:51;4.70;;;2.70;;
11486;SDS011;10510;47.942;9.442;2023-06-14T11:20:09;4.47;;;2.80;;
11486;SDS011;10510;47.942;9.442;2023-06-14T11:22:11;4.57;;;2.83;;
11486;SDS011;10510;47.942;9.442;2023-06-14T11:24:12;10.20;;;2.47;;
11486;SDS011;10510;47.942;9.442;2023-06-14T11:26:12;10.43;;;3.90;;
11486;SDS011;10510;47.942;9.442;2023-06-14T11:28:12;3.63;;;2.75;;
11486;SDS011;10510;47.942;9.442;2023-06-14T11:30:13;3.58;;;2.47;;
11486;SDS011;10510;47.942;9.442;2023-06-14T11:32:13;7.88;;;3.42;;
11486;SDS011;10510;47.942;9.442;2023-06-14T11:34:13;5.85;;;2.90;;
11486;SDS011;10510;47.942;9.442;2023-06-14T11:36:15;8.00;;;2.70;;
11486;SDS011;10510;47.942;9.442;2023-06-14T11:38:15;4.00;;;2.70;;
11486;SDS011;10510;47.942;9.442;2023-06-14T11:40:15;6.85;;;3.08;;
11486;SDS011;10510;47.942;9.442;2023-06-14T11:42:16;7.70;;;2.97;;
11486;SDS011;10510;47.942;9.442;2023-06-14T11:44:16;4.15;;;2.90;;
11486;SDS011;10510;47.942;9.442;2023-06-14T11:46:16;4.95;;;3.05;;
11486;SDS011;10510;47.942;9.442;2023-06-14T11:48:17;8.43;;;2.60;;
11486;SDS011;10510;47.942;9.442;2023-06-14T11:50:18;5.07;;;2.47;;
11486;SDS011;10510;47.942;9.442;2023-06-14T11:52:18;5.25;;;2.97;;
11486;SDS011;10510;47.942;9.442;2023-06-14T11:54:18;5.65;;;2.40;;
11486;SDS011;10510;47.942;9.442;2023-06-14T11:56:19;15.88;;;3.47;;
11486;SDS011;10510;47.942;9.442;2023-06-14T11:58:19;5.55;;;3.22;;
11486;SDS011;10510;47.942;9.442;2023-06-14T12:00:22;6.05;;;2.80;;
11486;SDS011;10510;47.942;9.442;2023-06-14T12:02:25;4.82;;;3.10;;
11486;SDS011;10510;47.942;9.442;2023-06-14T12:04:27;5.00;;;2.83;;
11486;SDS011;10510;47.942;9.442;2023-06-14T12:06:28;7.47;;;2.72;;
11486;SDS011;10510;47.942;9.442;2023-06-14T12:08:33;4.90;;;2.72;;
11486;SDS011;10510;47.942;9.442;2023-06-14T12:10:41;5.40;;;2.75;;
11486;SDS011;10510;47.942;9.442;2023-06-14T12:12:43;7.78;;;3.25;;
11486;SDS011;10510;47.942;9.442;2023-06-14T12:14:43;6.47;;;2.67;;
11486;SDS011;10510;47.942;9.442;2023-06-14T12:16:44;11.93;;;2.83;;
11486;SDS011;10510;47.942;9.442;2023-06-14T12:18:44;7.32;;;3.03;;
11486;SDS011;10510;47.942;9.442;2023-06-14T12:20:50;4.68;;;2.75;;
11486;SDS011;10510;47.942;9.442;2023-06-14T12:22:58;3.63;;;2.40;;